TimeADT,TemperatureF,Dew PointF,Humidity,Sea Level PressureIn,VisibilityMPH,Wind Direction,Wind SpeedMPH,Gust SpeedMPH,PrecipitationIn,Events,Conditions,WindDirDegrees,DateUTC
12:00 AM,45.5,36.7,71,-9999,-9999.0,North,-9999.0,-,N/A,,Unknown,0,2012-10-18 03:00:00
1:00 AM,45.3,36.3,71,-9999,-9999.0,North,-9999.0,-,N/A,,Unknown,0,2012-10-18 04:00:00
2:00 AM,45.3,37.2,73,-9999,-9999.0,North,-9999.0,-,N/A,,Unknown,0,2012-10-18 05:00:00
3:00 AM,45,36,61,,,Calm,Calm,,,,,,2012-10-18 06:00:00
4:00 AM,45.3,36.3,71,-9999,-9999.0,North,-9999.0,-,N/A,,Unknown,0,2012-10-18 07:00:00
5:00 AM,45.1,36.0,70,-9999,-9999.0,North,-9999.0,-,N/A,,Unknown,0,2012-10-18 08:00:00
6:00 AM,45.1,36.3,71,-9999,-9999.0,North,-9999.0,-,N/A,,Unknown,0,2012-10-18 09:00:00
7:00 AM,45.1,36.9,73,-9999,-9999.0,North,-9999.0,-,N/A,,Unknown,0,2012-10-18 10:00:00
8:00 AM,45.3,37.2,73,-9999,-9999.0,North,-9999.0,-,N/A,,Unknown,0,2012-10-18 11:00:00
9:00 AM,46,37,63,,,Calm,Calm,,,,,,2012-10-18 12:00:00
9:00 AM,45.9,37.4,72,-9999,-9999.0,North,-9999.0,-,N/A,,Unknown,0,2012-10-18 12:00:00
10:00 AM,46.4,37.8,72,-9999,-9999.0,North,-9999.0,-,N/A,,Unknown,0,2012-10-18 13:00:00
11:00 AM,47.3,37.4,68,-9999,-9999.0,North,-9999.0,-,2.09,,Unknown,0,2012-10-18 14:00:00
12:00 PM,48.0,37.6,67,-9999,-9999.0,North,-9999.0,-,N/A,,Unknown,0,2012-10-18 15:00:00
1:00 PM,48.0,37.8,68,-9999,-9999.0,North,-9999.0,-,N/A,,Unknown,0,2012-10-18 16:00:00
2:00 PM,50.0,39.2,66,-9999,-9999.0,North,-9999.0,-,N/A,,Unknown,0,2012-10-18 17:00:00
3:00 PM,48,39,61,,,Calm,Calm,,,,,,2012-10-18 18:00:00
3:00 PM,48.2,38.7,70,-9999,-9999.0,North,-9999.0,-,N/A,,Unknown,0,2012-10-18 18:00:00
4:00 PM,48.7,38.8,69,-9999,-9999.0,North,-9999.0,-,N/A,,Unknown,0,2012-10-18 19:00:00
5:00 PM,48.4,38.5,69,-9999,-9999.0,North,-9999.0,-,N/A,,Unknown,0,2012-10-18 20:00:00
6:00 PM,44.4,37.9,78,-9999,-9999.0,North,-9999.0,-,N/A,,Unknown,0,2012-10-18 21:00:00
7:00 PM,39.7,37.4,91,-9999,-9999.0,North,-9999.0,-,N/A,,Unknown,0,2012-10-18 22:00:00
8:00 PM,37.9,36.1,93,-9999,-9999.0,North,-9999.0,-,N/A,,Unknown,0,2012-10-18 23:00:00
9:00 PM,37.2,35.8,95,-9999,-9999.0,North,-9999.0,-,N/A,,Unknown,0,2012-10-19 00:00:00
11:00 PM,35.6,34.3,95,-9999,-9999.0,North,-9999.0,-,N/A,,Unknown,0,2012-10-19 02:00:00